WetterOnline ( https://www.wetteronline.de )

Wetter aktuell Vogelsang-Warsin

Aktuelles Wetter: Ueckermünde (7m)

6-stündlich | Neueste Meldungen
Ortszeit Temperatur Wetter
Di, 04.08. 2:00 10.5° C wolkig
Mo, 03.08. 20:00 18.4° C bewölkt
Mo, 03.08. 14:00 20.1° C leicht bewölkt
Mo, 03.08. 8:00 16.6° C bewölkt
Mo, 03.08. 2:00 14.2° C Nebel
So, 02.08. 20:00 19.0° C bedeckt
So, 02.08. 14:00 20.0° C leichter Regen
So, 02.08. 8:00 16.8° C wolkig
Ortszeit Temperatur Wetter
Di, 04.08. 2:00 10.5° C wolkig
Di, 04.08. 1:50 10.5° C wolkig
Di, 04.08. 1:40 10.7° C wolkig
Di, 04.08. 1:30 10.7° C wolkig
Di, 04.08. 1:20 10.7° C wolkig
Di, 04.08. 1:10 10.6° C wolkig
Di, 04.08. 1:00 11.1° C wolkig
Di, 04.08. 0:30 11.8° C bewölkt
Di, 04.08. 0:00 11.8° C fast wolkenlos
Mo, 03.08. 23:30 13.2° C wolkenlos
Mo, 03.08. 23:00 15.7° C wolkenlos
Ortszeit Relative Feuchte Sichtweite
Di, 04.08. 2:00 96% 60 km
Mo, 03.08. 20:00 64% >70 km
Mo, 03.08. 14:00 62% 45 km
Mo, 03.08. 8:00 90% 35 km
Mo, 03.08. 2:00 100% 100 m
So, 02.08. 20:00 89% 25 km
So, 02.08. 14:00 80% 30 km
So, 02.08. 8:00 89% 60 km
Ortszeit Relative Feuchte Sichtweite
Di, 04.08. 2:00 96% 60 km
Di, 04.08. 1:50 96% -
Di, 04.08. 1:40 94% -
Di, 04.08. 1:30 97% 55 km
Di, 04.08. 1:20 97% -
Di, 04.08. 1:10 99% -
Di, 04.08. 1:00 94% 50 km
Di, 04.08. 0:30 97% 40 km
Di, 04.08. 0:00 92% 50 km
Mo, 03.08. 23:30 88% 50 km
Mo, 03.08. 23:00 81% >70 km
Ortszeit Niederschlagsmenge Niederschlagsart
Di, 04.08. 2:00 0.0 l/m2 in 6 Std. -
Mo, 03.08. 20:00 0.0 l/m2 in 12 Std. -
Mo, 03.08. 14:00 0.0 l/m2 in 6 Std. -
Mo, 03.08. 8:00 0.3 l/m2 in 12 Std. -
Mo, 03.08. 2:00 0.2 l/m2 in 6 Std. Regen
So, 02.08. 20:00 0.3 l/m2 in 12 Std. Regen
So, 02.08. 14:00 0.2 l/m2 in 6 Std. Regen
So, 02.08. 8:00 0.8 l/m2 in 12 Std. Regen
Ortszeit Niederschlagsmenge Niederschlagsart
Di, 04.08. 2:00 0.0 l/m2 in 1 Std. -
Di, 04.08. 1:50 keine Meldung -
Di, 04.08. 1:40 keine Meldung -
Di, 04.08. 1:30 0.0 l/m2 in 1 Std. -
Di, 04.08. 1:20 keine Meldung -
Di, 04.08. 1:10 keine Meldung -
Di, 04.08. 1:00 0.0 l/m2 in 1 Std. -
Di, 04.08. 0:30 0.0 l/m2 in 1 Std. -
Di, 04.08. 0:00 0.0 l/m2 in 1 Std. -
Mo, 03.08. 23:30 0.0 l/m2 in 1 Std. -
Mo, 03.08. 23:00 0.0 l/m2 in 1 Std. -
Ortszeit Stärke Spitze Richtung
km/h Bft. km/h Grad Sektor
Di, 04.08. 2:00 6 1 17 230° SW
Mo, 03.08. 20:00 11 2 26 30° NO
Mo, 03.08. 14:00 11 2 24 360° N
Mo, 03.08. 8:00 9 2 19 300° NW
Mo, 03.08. 2:00 4 1 14 210° SW
So, 02.08. 20:00 7 2 22 310° NW
So, 02.08. 14:00 9 2 17 60° NO
So, 02.08. 8:00 4 1 22 140° SO
Ortszeit Stärke Spitze Richtung
km/h Bft. km/h Grad Sektor
Di, 04.08. 2:00 6 1 7 230° SW
Di, 04.08. 1:50 6 1 - 230° SW
Di, 04.08. 1:40 4 1 - 230° SW
Di, 04.08. 1:30 4 1 7 250° W
Di, 04.08. 1:20 4 1 - 250° W
Di, 04.08. 1:10 6 1 - 250° W
Di, 04.08. 1:00 4 1 7 210° SW
Di, 04.08. 0:30 4 1 7 240° SW
Di, 04.08. 0:00 4 1 14 210° SW
Mo, 03.08. 23:30 4 1 14 240° SW
Mo, 03.08. 23:00 4 1 14 340° N
Ortszeit Untergrenze Bedeckung Gattung
total tief tief mittel hoch
Di, 04.08. 2:00 9000 m 8/8 0/8 - - -
Mo, 03.08. 20:00 6300 m 8/8 7/8 - - -
Mo, 03.08. 14:00 1230 m 7/8 1/8 - - -
Mo, 03.08. 8:00 300 m 7/8 7/8 - - -
Mo, 03.08. 2:00 8100 m 8/8 0/8 - - -
So, 02.08. 20:00 210 m 8/8 8/8 - - -
So, 02.08. 14:00 2400 m 8/8 1/8 - - -
So, 02.08. 8:00 1800 m 8/8 1/8 - - -
Ortszeit Bedeckungsgrad in Achtel und Wolkenuntergrenze
Di, 04.08. 2:00 4(9000m) 8(9000m)
Di, 04.08. 1:50 4(9000m) 8(9000m)
Di, 04.08. 1:40 2(9000m) 7(9000m) 7(10500m)
Di, 04.08. 1:30 5(9000m) 6(9000m) 7(10500m)
Di, 04.08. 1:20 5(9000m) 6(9000m) 7(10500m)
Di, 04.08. 1:10 5(9000m) 7(9000m) 7(10500m)
Di, 04.08. 1:00 5(9000m) 8(9000m)
Di, 04.08. 0:30 5(5100m) 5(9000m) 8(10500m)
Di, 04.08. 0:00 1(9000m) 3(9000m) 5(10500m)
Mo, 03.08. 23:30 2(9000m)
Mo, 03.08. 23:00 keine Wolken
Ortszeit Luftdruck NN (hPa) Tendenz (hPa in 3 Std.)
Di, 04.08. 2:00 1012 + 0,6
Mo, 03.08. 20:00 1011 - 0,4
Mo, 03.08. 14:00 1012 - 0,5
Mo, 03.08. 8:00 1012 + 0,4
Mo, 03.08. 2:00 1012 - 0,1
So, 02.08. 20:00 1012 0,0
So, 02.08. 14:00 1013 - 0,1
So, 02.08. 8:00 1013 + 0,1
Ortszeit Luftdruck NN (hPa) Tendenz (hPa in 3 Std.)
Di, 04.08. 2:00 1012 + 0,6
Di, 04.08. 1:50 1012 keine Meldung
Di, 04.08. 1:40 1012 keine Meldung
Di, 04.08. 1:30 1012 + 0,5
Di, 04.08. 1:20 1012 keine Meldung
Di, 04.08. 1:10 1012 keine Meldung
Di, 04.08. 1:00 1012 + 0,3
Di, 04.08. 0:30 1012 + 0,3
Di, 04.08. 0:00 1012 + 0,3
Mo, 03.08. 23:30 1011 0,0
Mo, 03.08. 23:00 1011 + 0,2
Ortszeit Schneehöhe (cm)
Di, 04.08. 2:00 -
Mo, 03.08. 20:00 -
Mo, 03.08. 14:00 -
Mo, 03.08. 8:00 -
Mo, 03.08. 2:00 -
So, 02.08. 20:00 -
So, 02.08. 14:00 -
So, 02.08. 8:00 -
Ortszeit Schneehöhe (cm)
Di, 04.08. 2:00 -
Di, 04.08. 1:50 -
Di, 04.08. 1:40 -
Di, 04.08. 1:30 -
Di, 04.08. 1:20 -
Di, 04.08. 1:10 -
Di, 04.08. 1:00 -
Di, 04.08. 0:30 -
Di, 04.08. 0:00 -
Mo, 03.08. 23:30 -
Mo, 03.08. 23:00 -
Link zu dieser Seite / Seite empfehlen

Das Wetter in ...